x

9442396 - La Push, Wa (lapw1) Weather Station

7:36 - Sat 24th Jun 2017 All times are PDT. -7 hours from GMT.

  • Wind
    6mph, 8mph gusts
  • Sea Temp 59°f
  • Luft Temp 57°f
  • Sea Pressure 1020.1mb
  • 9442396 - La Push, Wa
  • 9442396 - La Push, Wa

More Historic Weather Station data

Upgrade to MSW Pro to gain access to the past 30 days of data for over 8000 Wavebouys and Weather Stations around the globe.

Join Pro

Comparision Forecast

View Surf forecast
   
Sa 06/24 7:36 6 8 mph 1020.1mb 59f 57f
7:30 8 10 mph 1020.1mb 59f 57f
7:24 8 10 mph 1020.1mb 59f 57f
7:18 6 10 mph 1020.1mb 60f 56f
7:12 8 10 mph 1020.1mb 60f 55f
7:06 7 13 mph 1020mb 60f 55f
7:00 8 11 mph 1019.9mb 60f 55f
6:36 8 10 mph 1019.8mb 59f 54f
6:30 8 10 mph 1019.8mb 59f 54f
6:24 8 11 mph 1019.8mb 59f 54f
6:18 7 9 mph 1019.8mb 59f 53f
6:12 6 8 mph 1019.8mb 59f 53f
6:06 7 9 mph 1019.8mb 59f 53f
6:00 7 10 mph 1019.8mb 59f 53f
5:36 7 10 mph 1019.6mb 58f 53f
5:30 7 11 mph 1019.6mb 58f 53f
5:24 7 11 mph 1019.6mb 58f 53f
5:18 8 11 mph 1019.5mb 58f 53f
5:12 8 13 mph 1019.5mb 58f 53f
5:06 8 10 mph 1019.5mb 57f 53f
5:00 8 11 mph 1019.5mb 57f 53f
4:36 8 13 mph 1019.5mb 55f 54f
4:30 7 11 mph 1019.6mb 54f 54f
4:24 7 10 mph 1019.6mb 52f 54f
4:18 8 13 mph 1019.6mb 51f 54f
4:12 7 10 mph 1019.7mb 50f 54f
4:06 8 11 mph 1019.7mb 49f 55f
4:00 9 13 mph 1019.8mb 49f 55f
3:36 10 14 mph 1019.9mb 49f 55f
3:30 11 14 mph 1019.9mb 49f 55f
3:24 9 14 mph 1019.9mb 49f 55f
3:18 11 14 mph 1019.9mb 49f 55f
3:12 11 14 mph 1019.9mb 49f 56f
3:06 11 14 mph 1019.9mb 48f 55f
3:00 11 13 mph 1019.9mb 48f 55f
2:36 10 11 mph 1020mb 48f 56f
2:30 9 11 mph 1020mb 48f 57f
2:24 10 11 mph 1020mb 48f 57f
2:18 9 13 mph 1020.1mb 48f 57f
2:12 10 11 mph 1020.1mb 48f 57f
2:06 8 13 mph 1020.2mb 48f 57f
2:00 9 11 mph 1020.2mb 48f 57f
1:36 7 10 mph 1020.3mb 48f 58f
1:30 7 10 mph 1020.3mb 48f 58f
1:24 8 10 mph 1020.2mb 48f 59f
1:18 7 9 mph 1020.3mb 48f 58f
1:12 6 8 mph 1020.3mb 48f 57f
1:06 3 6 mph 1020.4mb 48f 58f
1:00  -  2 mph 1020.4mb 48f 58f
12:36 3 8 mph 1020.4mb 48f 60f
12:30 8 9 mph 1020.3mb 48f 60f
12:24 7 8 mph 1020.3mb 48f 57f
12:18 2 3 mph 1020.3mb 48f 58f
12:12 1 2 mph 1020.3mb 48f 58f
12:06  -  1 mph 1020.4mb 48f 58f
12:00  -  1 mph 1020.4mb 48f 58f
Fr 06/23 11:36 1 2 mph 1020.5mb 48f 59f
11:30  -  1 mph 1020.5mb 48f 60f
11:24  -  1 mph 1020.5mb 47f 60f
11:18  -  1 mph 1020.5mb 47f 60f
11:12  -  2 mph 1020.6mb 47f 60f
11:06  -  1 mph 1020.6mb 47f 60f
11:00 1 2 mph 1020.6mb 47f 61f
10:36 6 8 mph 1020.7mb 47f 65f
10:30 6 7 mph 1020.7mb 47f 63f
10:24 1 5 mph 1020.8mb 47f 64f
10:18 2 6 mph 1020.7mb 47f 65f
10:12 1 5 mph 1020.7mb 47f 70f
10:06 6 16 mph 1020.7mb 47f 72f
10:00 10 16 mph 1020.7mb 47f 71f
9:36 17 21 mph 1020.6mb 47f 71f
9:30 15 18 mph 1020.6mb 47f 71f
9:24 14 17 mph 1020.6mb 47f 70f
9:18 13 16 mph 1020.6mb 47f 67f
9:12 13 16 mph 1020.6mb 47f 65f
9:06 14 16 mph 1020.6mb 47f 64f
9:00 13 14 mph 1020.6mb 48f 65f
8:36 14 16 mph 1020.5mb 48f 65f
8:30 14 16 mph 1020.6mb 48f 64f
8:24 13 15 mph 1020.7mb 48f 65f
8:18 13 16 mph 1020.7mb 48f 68f
8:12 14 17 mph 1020.7mb 48f 65f
8:06 16 20 mph 1020.7mb 49f 64f
8:00 17 21 mph 1020.8mb 49f 64f
7:36 15 16 mph 1020.7mb 51f 64f
7:30 15 17 mph 1020.6mb 52f 62f
7:24 14 20 mph 1020.6mb 54f 63f
7:18 17 21 mph 1020.6mb 55f 63f
7:12 20 22 mph 1020.7mb 55f 63f
7:06 21 23 mph 1020.7mb 56f 63f
7:00 22 23 mph 1020.8mb 56f 62f
6:36 21 25 mph 1020.9mb 56f 59f
6:30 23 28 mph 1020.9mb 57f 60f
6:24 22 25 mph 1020.9mb 57f 60f
6:18 22 26 mph 1020.9mb 57f 60f
6:12 23 25 mph 1020.9mb 57f 59f
6:06 22 25 mph 1021mb 57f 59f
6:00 22 25 mph 1021.1mb 57f 58f
5:36 22 25 mph 1021.4mb 57f 60f
5:30 22 25 mph 1021.4mb 57f 60f
5:24 21 25 mph 1021.4mb 56f 63f
5:18 21 24 mph 1021.4mb 56f 63f
5:12 21 25 mph 1021.5mb 56f 64f
5:06 21 24 mph 1021.5mb 55f 60f
5:00 20 23 mph 1021.6mb 54f 62f
4:36 23 28 mph 1022.1mb 51f 58f
4:30 23 25 mph 1022.1mb 51f 58f
4:24 22 25 mph 1022.2mb 49f 58f
4:18 22 24 mph 1022.2mb 49f 58f
4:12 22 24 mph 1022.2mb 49f 59f
4:06 21 24 mph 1022.2mb 49f 59f
4:00 21 23 mph 1022.2mb 49f 59f
3:36 18 22 mph 1022.3mb 49f 57f
3:30 18 22 mph 1022.4mb 49f 57f
3:24 18 22 mph 1022.4mb 49f 57f
3:18 20 23 mph 1022.4mb 49f 58f
3:12 20 23 mph 1022.4mb 48f 58f
3:06 18 22 mph 1022.4mb 48f 59f
3:00 17 21 mph 1022.4mb 48f 59f
2:36 20 23 mph 1022.4mb 47f 63f
2:30 21 23 mph 1022.5mb 47f 62f
2:24 20 23 mph 1022.5mb 47f 62f
2:18 20 22 mph 1022.6mb 47f 62f
2:12 20 23 mph 1022.7mb 47f 63f
2:06 21 23 mph 1022.7mb 47f 63f
2:00 20 22 mph 1022.7mb 47f 62f
1:36 17 20 mph 1022.7mb 48f 62f
1:30 18 22 mph 1022.7mb 48f 60f
1:24 14 16 mph 1022.8mb 49f 59f
1:18 13 16 mph 1022.8mb 50f 58f
1:12 13 15 mph 1022.8mb 50f 57f
1:06 10 13 mph 1022.9mb 50f 57f
1:00 10 13 mph 1022.9mb 50f 57f
12:36 7 8 mph 1022.9mb 50f 56f
12:30 5 6 mph 1022.9mb 50f 56f
12:24 5 6 mph 1022.9mb 50f 56f
12:18 5 6 mph 1022.9mb 50f 56f
12:12 3 6 mph 1023mb 50f 56f
12:06 5 8 mph 1023.1mb 50f 56f
12:00 7 10 mph 1023.2mb 50f 56f
11:36 8 9 mph 1023.3mb 50f 55f
11:30 6 7 mph 1023.2mb 50f 55f
11:24 5 6 mph 1023.2mb 50f 55f
11:18 5 7 mph 1023.3mb 50f 55f
11:12 6 7 mph 1023.4mb 50f 55f
11:06 6 7 mph 1023.4mb 50f 55f
11:00 6 6 mph 1023.4mb 50f 55f
10:36 3 5 mph 1023.4mb 50f 54f
10:30 5 5 mph 1023.4mb 50f 54f
10:24 3 6 mph 1023.4mb 50f 54f
10:18 5 6 mph 1023.4mb 51f 54f
10:12 5 6 mph 1023.4mb 51f 54f
10:06 6 7 mph 1023.4mb 51f 54f
10:00 6 7 mph 1023.5mb 52f 53f
9:36 5 5 mph 1023.6mb 55f 54f
9:30 5 6 mph 1023.7mb 55f 54f
9:24 5 6 mph 1023.7mb 56f 54f
9:18 6 6 mph 1023.6mb 57f 54f
9:12 6 7 mph 1023.6mb 57f 54f
9:06 6 7 mph 1023.7mb 57f 55f
9:00 7 7 mph 1023.7mb 57f 55f
8:36 5 6 mph 1023.6mb 57f 58f
8:30 3 5 mph 1023.6mb 57f 58f
8:24 2 7 mph 1023.6mb 57f 57f
8:18 5 7 mph 1023.6mb 57f 56f
8:12 2 5 mph 1023.6mb 57f 56f
8:06 3 6 mph 1023.7mb 57f 55f
8:00 6 7 mph 1023.6mb 57f 54f
7:54 6 7 mph 1023.6mb 57f 54f
7:48 2 6 mph 1023.6mb 58f 54f
7:36 3 7 mph 1023.6mb 58f 52f
7:30 6 8 mph 1023.6mb 58f 52f
7:24 5 7 mph 1023.6mb 58f 52f
7:18 2 7 mph 1023.6mb 58f 51f
7:12 6 10 mph 1023.6mb 58f 50f
7:06 6 9 mph 1023.5mb 57f 50f
7:00 6 10 mph 1023.5mb 57f 50f
6:54 6 9 mph 1023.5mb 57f 49f
6:48 5 6 mph 1023.5mb 57f 49f
6:36 3 6 mph 1023.8mb 58f 49f
6:30 2 3 mph 1023.9mb 58f 48f
6:24 1 3 mph 1023.8mb 58f 48f
6:18 2 3 mph 1023.6mb 58f 48f
6:12 3 5 mph 1023.6mb 58f 48f
6:06 2 6 mph 1023.6mb 58f 48f
6:00 5 6 mph 1023.5mb 58f 47f
5:54 5 7 mph 1023.4mb 58f 47f
5:48 5 7 mph 1023.4mb 58f 47f
5:36 3 6 mph 1023.4mb 58f 47f
5:30 2 5 mph 1023.5mb 58f 47f
5:24 2 5 mph 1023.5mb 58f 47f
5:18 2 6 mph 1023.5mb 58f 47f
5:12 3 5 mph 1023.4mb 58f 47f
5:06 3 6 mph 1023.4mb 58f 47f
5:00 3 5 mph 1023.4mb 58f 47f
4:54 3 5 mph 1023.4mb 58f 48f
4:48 2 5 mph 1023.5mb 58f 48f
4:36 5 6 mph 1023.5mb 58f 48f
4:30 6 8 mph 1023.6mb 58f 48f
4:24 6 7 mph 1023.6mb 58f 48f
4:18 6 7 mph 1023.6mb 57f 48f
4:12 6 7 mph 1023.6mb 57f 48f
4:06 6 7 mph 1023.6mb 57f 49f
4:00 5 5 mph 1023.7mb 57f 50f
3:54 3 5 mph 1023.8mb 56f 50f
3:48 2 3 mph 1023.8mb 56f 50f
3:36 2 3 mph 1023.9mb 56f 49f
3:30 2 3 mph 1023.9mb 55f 49f
3:24 2 5 mph 1024mb 54f 49f
3:18 3 5 mph 1024mb 54f 49f
3:12 2 2 mph 1024mb 53f 50f
3:06 2 3 mph 1024mb 53f 50f
3:00 2 3 mph 1023.9mb 53f 50f
2:54 1 3 mph 1023.9mb 52f 49f
2:48 3 6 mph 1023.8mb 52f 50f
2:36 3 5 mph 1023.8mb 52f 50f
2:30 3 5 mph 1023.8mb 52f 52f
2:24 1 2 mph 1024mb 52f 52f
2:18 1 3 mph 1024mb 52f 51f
2:12 2 3 mph 1024mb 52f 51f
2:06 2 5 mph 1024.1mb 52f 51f
2:00 3 3 mph 1023.9mb 52f 51f
1:54 2 3 mph 1023.9mb 52f 52f
1:48 2 3 mph 1023.9mb 52f 52f
1:36 2 5 mph 1024.1mb 52f 52f
1:30  -  2 mph 1024.1mb 52f 52f
1:24  -  1 mph 1024.1mb 52f 52f
1:18  -  1 mph 1024.2mb 52f 52f
1:12 1 2 mph 1024.2mb 52f 52f
1:06 2 3 mph 1024.1mb 52f 52f
1:00 1 2 mph 1024.1mb 52f 52f
12:54  -  2 mph 1024.2mb 52f 53f
12:48  -  2 mph 1024.1mb 52f 53f
12:36 1 3 mph 1024.3mb 52f 53f
12:30 2 2 mph 1024.3mb 52f 53f
12:24  -  1 mph 1024.4mb 52f 54f
12:18 1 3 mph 1024.4mb 52f 54f
12:12 5 8 mph 1024.5mb 52f 54f
12:06 6 8 mph 1024.6mb 52f 53f
12:00 3 5 mph 1024.6mb 52f 53f
Do 06/22 11:54 2 5 mph 1024.7mb 52f 54f
11:48 3 5 mph 1024.6mb 52f 54f
11:36 2 3 mph 1024.9mb 52f 54f
11:30 2 5 mph 1024.9mb 52f 55f
11:24 5 9 mph 1024.9mb 52f 55f
11:18 5 8 mph 1024.9mb 52f 55f
11:12 3 7 mph 1024.9mb 52f 55f
11:06 2 13 mph 1024.8mb 52f 56f
11:00 9 11 mph 1024.8mb 52f 56f
10:54 8 14 mph 1024.8mb 52f 55f
10:48 6 13 mph 1024.7mb 52f 56f
10:36 10 16 mph 1024.8mb 52f 56f
10:30 14 16 mph 1024.8mb 52f 56f
10:24 6 8 mph 1024.8mb 52f 55f
10:18 3 6 mph 1024.7mb 52f 55f
10:12 8 16 mph 1024.7mb 52f 56f
10:06 15 17 mph 1024.8mb 52f 56f
10:00 13 16 mph 1024.8mb 52f 56f
9:54 13 14 mph 1024.7mb 52f 56f
9:48 13 15 mph 1024.7mb 52f 56f
9:36 14 16 mph 1024.8mb 52f 57f
9:30 13 15 mph 1024.8mb 52f 57f
9:24 14 17 mph 1024.7mb 52f 56f
9:18 14 17 mph 1024.8mb 52f 57f
9:12 14 16 mph 1024.8mb 52f 56f
9:06 13 15 mph 1024.8mb 52f 56f
9:00 11 14 mph 1024.8mb 52f 56f
8:54 13 15 mph 1024.8mb 52f 56f
8:48 14 17 mph 1024.8mb 52f 56f
8:36 13 14 mph 1024.7mb 52f 57f
8:30 11 15 mph 1024.7mb 52f 57f
8:24 13 15 mph 1024.7mb 52f 56f
8:18 13 17 mph 1024.7mb 52f 56f
8:12 15 17 mph 1024.8mb 52f 56f
8:06 15 18 mph 1024.8mb 52f 56f
8:00 15 20 mph 1024.9mb 52f 56f
7:54 16 22 mph 1024.9mb 52f 56f
7:48 18 22 mph 1024.8mb 52f 56f
7:36 20 22 mph 1024.9mb 52f 56f
7:30 18 22 mph 1024.9mb 52f 56f
7:24 20 23 mph 1024.8mb 53f 56f
7:18 21 23 mph 1024.9mb 53f 56f
7:12 18 21 mph 1025mb 53f 56f
7:06 17 22 mph 1025mb 53f 56f
7:00 20 24 mph 1025.1mb 54f 56f
6:54 20 23 mph 1025.1mb 55f 56f
6:48 20 23 mph 1025.1mb 55f 56f
6:36 21 24 mph 1025.1mb 57f 56f
6:30 21 23 mph 1025.1mb 57f 56f
6:24 22 25 mph 1025.1mb 57f 56f
6:18 21 23 mph 1025.1mb 57f 56f
6:12 21 24 mph 1025.2mb 57f 56f
6:06 21 24 mph 1025.1mb 57f 56f
6:00 21 24 mph 1025.1mb 57f 56f
5:54 18 23 mph 1025.1mb 57f 56f
5:48 20 24 mph 1025.1mb 58f 56f
5:36 17 21 mph 1025.1mb 58f 56f
5:30 17 22 mph 1024.9mb 58f 56f
5:24 17 22 mph 1024.9mb 58f 55f
5:18 18 22 mph 1025mb 58f 55f
5:12 18 22 mph 1025.1mb 58f 55f
5:06 17 22 mph 1025.2mb 58f 55f
5:00 18 22 mph 1025.3mb 58f 55f
4:54 18 22 mph 1025.3mb 58f 55f
4:48 20 22 mph 1025.3mb 58f 55f
4:36 18 22 mph 1025.4mb 58f 55f
4:30 17 21 mph 1025.4mb 58f 55f
4:24 17 21 mph 1025.5mb 58f 55f
4:18 17 21 mph 1025.6mb 57f 55f
4:12 20 23 mph 1025.7mb 57f 55f
4:06 18 22 mph 1025.8mb 57f 55f
4:00 18 22 mph 1025.7mb 56f 55f
3:54 18 21 mph 1025.8mb 56f 55f
3:48 18 22 mph 1025.7mb 56f 55f
3:36 18 22 mph 1025.7mb 56f 55f
3:30 18 22 mph 1025.7mb 55f 55f
3:24 20 23 mph 1025.8mb 54f 55f
3:18 17 21 mph 1025.7mb 54f 55f
3:12 18 21 mph 1025.8mb 54f 55f
3:06 18 22 mph 1025.8mb 53f 55f
3:00 15 20 mph 1025.9mb 52f 55f
2:54 16 20 mph 1026mb 52f 55f
2:48 16 18 mph 1026.1mb 52f 55f
2:36 11 16 mph 1026.1mb 52f 55f
2:30 14 16 mph 1026.2mb 52f 55f
2:24 15 17 mph 1026.3mb 52f 55f
2:18 15 16 mph 1026.4mb 52f 55f
2:12 13 15 mph 1026.4mb 52f 55f
2:06 13 14 mph 1026.5mb 52f 55f
2:00 11 14 mph 1026.5mb 52f 54f
1:54 13 15 mph 1026.6mb 52f 54f
1:48 13 15 mph 1026.7mb 52f 54f
1:36 10 13 mph 1026.7mb 52f 54f
1:30 11 14 mph 1026.8mb 52f 54f
1:24 9 11 mph 1026.8mb 52f 54f
1:18 9 10 mph 1026.8mb 52f 54f
1:12 8 9 mph 1026.7mb 52f 54f
1:06 7 9 mph 1026.7mb 52f 54f
1:00 7 9 mph 1026.6mb 52f 54f
12:54 7 8 mph 1026.6mb 52f 54f
12:48 7 7 mph 1026.6mb 52f 54f
12:36 6 7 mph 1026.6mb 52f 55f
12:30 6 8 mph 1026.7mb 52f 55f
12:24 7 8 mph 1026.8mb 52f 55f
12:18 6 7 mph 1026.8mb 51f 55f
12:12 5 6 mph 1026.8mb 51f 55f
12:06 5 6 mph 1026.7mb 51f 55f
12:00 6 6 mph 1026.7mb 51f 55f
11:54 3 6 mph 1026.6mb 51f 55f
11:48 5 7 mph 1026.7mb 51f 55f
11:36 5 6 mph 1026.6mb 51f 55f
11:30 6 6 mph 1026.6mb 51f 55f
11:24 6 7 mph 1026.7mb 52f 55f
11:18 6 7 mph 1026.7mb 51f 55f
11:12 5 7 mph 1026.7mb 51f 55f
11:06 5 6 mph 1026.7mb 51f 55f
11:00 5 6 mph 1026.8mb 51f 54f
10:54 5 5 mph 1026.9mb 51f 54f
10:48 5 7 mph 1027.1mb 51f 54f
10:36 6 7 mph 1027.1mb 52f 54f
10:30 7 8 mph 1027.2mb 52f 54f
10:24 7 8 mph 1027.1mb 52f 54f
10:18 7 8 mph 1027mb 52f 54f
10:12 6 6 mph 1026.9mb 52f 54f
10:06 3 5 mph 1026.9mb 52f 54f
10:00 2 3 mph 1026.9mb 51f 54f
9:54 3 5 mph 1026.8mb 52f 54f
9:48 3 6 mph 1026.9mb 52f 54f
9:36 3 5 mph 1026.9mb 52f 54f
9:30 3 5 mph 1026.9mb 52f 54f
9:24 5 5 mph 1026.9mb 52f 54f
9:18 3 3 mph 1026.9mb 53f 54f
9:12 2 3 mph 1026.9mb 53f 54f
9:06 2 3 mph 1026.8mb 53f 54f
9:00 1 2 mph 1026.9mb 54f 54f
8:54  -  2 mph 1026.9mb 54f 54f
8:48 2 3 mph 1026.8mb 55f 54f
8:36 3 5 mph 1026.9mb 55f 53f
8:30 5 6 mph 1026.9mb 56f 52f
8:24 5 6 mph 1027mb 56f 52f
8:18 3 6 mph 1027mb 55f 51f
8:12 5 6 mph 1027mb 55f 51f
8:06 5 7 mph 1027mb 55f 50f
8:00 3 8 mph 1027mb 56f 50f
7:54 8 9 mph 1026.9mb 56f 49f
7:48 7 9 mph 1026.9mb 56f 49f
7:36 6 9 mph 1026.8mb 56f 48f
7:30 7 9 mph 1026.8mb 56f 48f
7:24 8 10 mph 1026.7mb 56f 48f
7:18 7 8 mph 1026.8mb 56f 47f
7:12 7 10 mph 1026.9mb 56f 47f
7:06 7 9 mph 1027mb 56f 47f
7:00 7 9 mph 1026.9mb 56f 47f
6:54 6 9 mph 1026.9mb 57f 47f
6:48 6 9 mph 1026.8mb 57f 47f
6:36 7 9 mph 1026.5mb 57f 46f
6:30 7 9 mph 1026.5mb 57f 47f
6:24 7 9 mph 1026.6mb 57f 47f
6:18 6 9 mph 1026.5mb 57f 46f
6:12 8 10 mph 1026.5mb 57f 46f
6:06 8 9 mph 1026.5mb 57f 46f
6:00 8 11 mph 1026.5mb 57f 46f
5:54 8 10 mph 1026.5mb 57f 47f
5:48 7 9 mph 1026.4mb 57f 47f
5:36 9 11 mph 1026.4mb 57f 47f
5:30 7 10 mph 1026.4mb 57f 47f
5:24 8 9 mph 1026.5mb 57f 47f
5:18 7 9 mph 1026.5mb 57f 47f
5:12 7 10 mph 1026.5mb 57f 47f
5:06 8 9 mph 1026.4mb 57f 47f
5:00 8 9 mph 1026.4mb 57f 47f
4:54 8 10 mph 1026.4mb 57f 47f
4:48 7 9 mph 1026.4mb 57f 47f
4:36 7 10 mph 1026.2mb 57f 47f
4:30 7 9 mph 1026.2mb 57f 47f
4:24 8 9 mph 1026.4mb 57f 47f
4:18 8 9 mph 1026.4mb 57f 47f
4:12 8 9 mph 1026.4mb 57f 47f
4:06 7 8 mph 1026.5mb 57f 47f
4:00 6 7 mph 1026.5mb 57f 47f
3:54 7 8 mph 1026.5mb 57f 47f
3:48 6 8 mph 1026.5mb 57f 47f
3:36 6 9 mph 1026.3mb 57f 47f
3:30 7 8 mph 1026.3mb 57f 47f
3:24 7 8 mph 1026.5mb 57f 47f
3:18 7 8 mph 1026.5mb 57f 48f
3:12 6 8 mph 1026.5mb 57f 48f
3:06 6 8 mph 1026.4mb 57f 48f
3:00 6 8 mph 1026.4mb 57f 48f
2:54 7 8 mph 1026.4mb 57f 48f
2:48 7 9 mph 1026.4mb 57f 48f
2:36 7 8 mph 1026.5mb 56f 48f
2:30 7 8 mph 1026.7mb 56f 48f
2:24 6 8 mph 1026.6mb 56f 48f
2:18 6 9 mph 1026.6mb 56f 48f
2:12 6 8 mph 1026.6mb 55f 48f
2:06 6 8 mph 1026.7mb 55f 48f
2:00 6 8 mph 1026.7mb 55f 48f
1:54 7 8 mph 1026.7mb 55f 48f
1:48 7 9 mph 1026.8mb 55f 49f
1:36 6 8 mph 1026.8mb 55f 49f
1:30 5 8 mph 1026.9mb 55f 49f
1:24 7 8 mph 1026.9mb 55f 49f
1:18 6 8 mph 1026.9mb 55f 49f
1:12 7 9 mph 1026.9mb 55f 49f
1:06 6 9 mph 1026.9mb 54f 50f
1:00 6 9 mph 1026.9mb 54f 50f
12:54 7 9 mph 1026.9mb 54f 50f
12:48 6 9 mph 1027mb 54f 50f
12:36 5 6 mph 1026.9mb 54f 50f
12:30 6 7 mph 1026.9mb 54f 50f
12:24 3 6 mph 1026.9mb 54f 51f
12:18 1 3 mph 1026.9mb 54f 51f
12:12 1 3 mph 1027mb 54f 51f
12:06 3 6 mph 1027.1mb 54f 51f
12:00 5 7 mph 1027mb 53f 51f
Mi 06/21 11:54 5 6 mph 1026.9mb 53f 51f
11:48 3 6 mph 1026.9mb 53f 51f
11:36 3 6 mph 1026.9mb 53f 51f
11:30 3 5 mph 1026.8mb 54f 52f
11:24 2 6 mph 1026.7mb 54f 52f
11:18 6 6 mph 1026.7mb 54f 52f
11:12 5 6 mph 1026.7mb 54f 53f
11:06 3 6 mph 1026.8mb 54f 54f
11:00 3 6 mph 1026.8mb 54f 54f
10:54 2 6 mph 1026.8mb 54f 55f
10:48 5 10 mph 1027mb 54f 55f
10:36 10 13 mph 1026.9mb 55f 56f
10:30 10 13 mph 1027.1mb 55f 56f
10:24 10 14 mph 1027mb 55f 56f
10:18 11 15 mph 1027.2mb 55f 56f
10:12 11 14 mph 1027.1mb 55f 56f
10:06 11 14 mph 1027.1mb 55f 56f
10:00 10 14 mph 1027mb 55f 56f
9:54 11 14 mph 1027mb 55f 56f
9:48 11 13 mph 1027mb 55f 56f
9:36 9 14 mph 1026.7mb 55f 56f
9:30 10 14 mph 1026.7mb 55f 56f
9:24 10 14 mph 1026.7mb 55f 56f
9:18 11 15 mph 1026.9mb 55f 56f
9:12 10 13 mph 1026.9mb 55f 56f
9:06 8 10 mph 1026.8mb 55f 56f
9:00 8 11 mph 1026.7mb 55f 56f
8:54 8 11 mph 1026.7mb 55f 56f
8:36 10 13 mph 1027mb 55f 56f
8:30 10 13 mph 1026.9mb 55f 55f
8:24 9 13 mph 1026.7mb 55f 55f
8:18 11 14 mph 1026.6mb 55f 55f
8:12 11 14 mph 1026.6mb 55f 55f
8:06 13 15 mph 1026.7mb 55f 55f
8:00 14 15 mph 1026.9mb 55f 55f
7:54 13 15 mph 1026.9mb 55f 55f
7:48 13 16 mph 1027mb 55f 55f
7:36 13 15 mph 1027.1mb 55f 55f
7:30 15 17 mph 1027.2mb 55f 55f
7:24 14 18 mph 1027.3mb 55f 55f
7:18 16 18 mph 1027.4mb 55f 55f
7:12 16 21 mph 1027.4mb 55f 55f
7:06 16 20 mph 1027.4mb 55f 55f
7:00 16 20 mph 1027.4mb 55f 55f
6:54 15 20 mph 1027.4mb 55f 55f
6:48 16 18 mph 1027.2mb 55f 56f
6:36 17 20 mph 1027.1mb 55f 55f
6:30 16 20 mph 1027.1mb 55f 56f
6:24 14 20 mph 1027.1mb 55f 55f
6:18 17 20 mph 1027.2mb 56f 55f
6:12 16 20 mph 1027.2mb 56f 56f
6:06 16 20 mph 1027.2mb 56f 56f
6:00 15 18 mph 1027.3mb 56f 55f
5:54 15 18 mph 1027.3mb 56f 55f
5:48 14 18 mph 1027.4mb 56f 55f
5:36 15 18 mph 1027.6mb 55f 55f
5:30 15 20 mph 1027.7mb 56f 55f
5:24 17 21 mph 1027.7mb 56f 55f
5:18 15 17 mph 1027.7mb 56f 56f
5:12 14 18 mph 1027.6mb 56f 55f
5:06 15 18 mph 1027.7mb 56f 55f
5:00 16 20 mph 1027.7mb 56f 55f
4:54 16 18 mph 1027.8mb 56f 55f
4:48 15 18 mph 1028mb 56f 56f
4:36 14 18 mph 1027.9mb 56f 55f
4:30 15 20 mph 1028mb 56f 55f
4:24 16 20 mph 1028mb 56f 55f
4:18 16 20 mph 1028.1mb 56f 56f
4:12 15 18 mph 1028mb 56f 55f
4:06 15 18 mph 1028mb 56f 55f
4:00 14 16 mph 1028.1mb 56f 55f
3:54 14 16 mph 1028mb 56f 55f
3:48 13 18 mph 1028.1mb 56f 55f
3:36 16 18 mph 1028.1mb 56f 55f
3:30 17 21 mph 1028.2mb 55f 55f
3:24 16 20 mph 1028.2mb 55f 55f
3:18 17 20 mph 1028.2mb 55f 55f
3:12 16 21 mph 1028.2mb 56f 55f
3:06 16 20 mph 1028.3mb 56f 55f
3:00 16 18 mph 1028.3mb 56f 55f
2:54 14 17 mph 1028.2mb 56f 55f
2:36 15 18 mph 1028.4mb 55f 55f
2:30 15 18 mph 1028.3mb 55f 55f
2:24 16 18 mph 1028.3mb 55f 55f
2:18 14 17 mph 1028.3mb 56f 55f
2:12 16 18 mph 1028.3mb 56f 55f
2:06 15 20 mph 1028.3mb 56f 55f
2:00 15 20 mph 1028.2mb 56f 55f
1:54 15 20 mph 1028.3mb 56f 55f
1:48 15 18 mph 1028.3mb 56f 55f
1:36 15 18 mph 1028.5mb 55f 55f
1:30 14 15 mph 1028.4mb 55f 55f
1:24 14 16 mph 1028.3mb 55f 55f
1:18 14 15 mph 1028.4mb 55f 55f
1:12 15 17 mph 1028.4mb 55f 55f
1:06 13 16 mph 1028.5mb 55f 55f
1:00 14 15 mph 1028.3mb 54f 55f
12:54 14 16 mph 1028.3mb 54f 55f
12:48 13 16 mph 1028.4mb 54f 55f
12:36 13 17 mph 1028.4mb 54f 55f
12:30 13 16 mph 1028.4mb 54f 55f
12:24 13 17 mph 1028.4mb 54f 55f
12:18 13 16 mph 1028.5mb 54f 55f
12:12 13 18 mph 1028.5mb 54f 55f
12:06 15 18 mph 1028.5mb 54f 55f
12:00 14 16 mph 1028.4mb 54f 55f
11:54 14 18 mph 1028.5mb 54f 55f
11:48 16 18 mph 1028.5mb 54f 55f
11:36 15 18 mph 1028.4mb 54f 55f
11:30 15 18 mph 1028.4mb 54f 55f
11:24 15 18 mph 1028.4mb 54f 55f
11:18 13 17 mph 1028.3mb 54f 55f
11:12 15 17 mph 1028.4mb 54f 55f
11:06 14 17 mph 1028.4mb 54f 55f
11:00 14 15 mph 1028.4mb 55f 55f
10:54 15 17 mph 1028.4mb 55f 55f
10:48 14 18 mph 1028.4mb 55f 55f
10:36 15 17 mph 1028.3mb 54f 55f
10:30 16 18 mph 1028.3mb 55f 55f
10:24 15 20 mph 1028.2mb 54f 55f
10:18 15 17 mph 1028.2mb 55f 55f
10:12 14 18 mph 1028.2mb 55f 55f
10:06 15 18 mph 1028.3mb 55f 55f
10:00 15 18 mph 1028.2mb 55f 55f
9:54 14 17 mph 1028.2mb 55f 55f
9:48 14 16 mph 1028.2mb 55f 55f
9:36 13 17 mph 1028.1mb 55f 55f
9:30 15 18 mph 1028.1mb 55f 55f
9:24 16 18 mph 1028.2mb 55f 55f
9:18 16 20 mph 1028.2mb 55f 55f
9:12 15 18 mph 1028.1mb 55f 55f
9:06 15 21 mph 1028.1mb 55f 55f
9:00 16 21 mph 1028mb 55f 55f
8:54 15 20 mph 1027.9mb 55f 55f
8:48 14 18 mph 1027.7mb 55f 55f
8:36 15 20 mph 1027.6mb 56f 55f
8:30 15 17 mph 1027.7mb 56f 55f
8:24 15 18 mph 1027.6mb 56f 55f
8:18 15 17 mph 1027.4mb 56f 55f
8:12 13 17 mph 1027.2mb 56f 55f
8:06 14 16 mph 1027.1mb 56f 54f
8:00 13 17 mph 1027mb 56f 54f
7:54 15 18 mph 1027mb 56f 55f
7:48 13 20 mph 1027.1mb 56f 54f
7:36 16 20 mph 1026.9mb 56f 54f
7:30 14 18 mph 1026.9mb 56f 54f
7:24 15 18 mph 1026.8mb 56f 54f
7:18 14 18 mph 1026.8mb 56f 54f
7:12 15 20 mph 1026.9mb 56f 54f
7:06 15 18 mph 1026.9mb 56f 54f
7:00 16 20 mph 1027mb 56f 54f
6:54 16 21 mph 1027mb 56f 54f
6:36 14 20 mph 1026.7mb 56f 54f
6:30 16 21 mph 1026.9mb 56f 54f
6:24 15 20 mph 1026.9mb 56f 54f
6:18 16 18 mph 1026.8mb 56f 54f
6:12 15 18 mph 1026.8mb 56f 54f
6:06 17 21 mph 1026.8mb 56f 55f
6:00 15 20 mph 1026.7mb 56f 54f
5:54 17 21 mph 1026.8mb 56f 54f
5:48 16 20 mph 1026.8mb 56f 54f
5:36 15 21 mph 1026.7mb 56f 54f
5:30 17 21 mph 1026.7mb 56f 54f
5:24 15 20 mph 1026.7mb 56f 54f
5:18 17 21 mph 1026.8mb 56f 54f
5:12 17 20 mph 1026.7mb 56f 54f
5:06 16 21 mph 1026.6mb 56f 54f
5:00 18 22 mph 1026.6mb 56f 54f
4:54 16 20 mph 1026.6mb 56f 54f
4:48 15 20 mph 1026.5mb 56f 54f
4:36 15 21 mph 1026.4mb 56f 54f
4:30 17 21 mph 1026.4mb 56f 54f
4:24 17 21 mph 1026.4mb 56f 54f
4:18 18 21 mph 1026.5mb 56f 54f
4:12 17 22 mph 1026.4mb 56f 54f
4:06 21 25 mph 1026.5mb 56f 54f
4:00 17 22 mph 1026.6mb 56f 54f
3:54 20 23 mph 1026.6mb 56f 54f
3:48 20 23 mph 1026.7mb 56f 54f
3:36 16 21 mph 1026.6mb 56f 54f
3:30 18 20 mph 1026.5mb 56f 54f
3:24 16 21 mph 1026.5mb 56f 54f
3:18 16 20 mph 1026.4mb 57f 54f
3:12 18 22 mph 1026.4mb 57f 54f
3:06 15 20 mph 1026.3mb 57f 54f
3:00 17 20 mph 1026.4mb 57f 54f
2:54 16 20 mph 1026.3mb 57f 54f
2:48 17 22 mph 1026.2mb 57f 54f
2:36 15 20 mph 1026mb 57f 54f
2:30 16 18 mph 1026mb 57f 54f
2:24 16 21 mph 1026mb 57f 54f
2:18 16 20 mph 1026mb 57f 55f
2:12 16 22 mph 1026mb 57f 55f
2:06 17 21 mph 1026.1mb 57f 55f
2:00 15 18 mph 1026mb 57f 55f
1:54 15 18 mph 1026mb 57f 55f
1:48 17 21 mph 1026.1mb 58f 55f
1:36 16 18 mph 1026.1mb 58f 55f
1:30 15 20 mph 1026mb 58f 55f
1:24 16 20 mph 1026.1mb 58f 55f
1:18 16 18 mph 1026.2mb 58f 55f
1:12 15 20 mph 1026.1mb 58f 55f
1:06 14 18 mph 1025.9mb 58f 55f
1:00 16 18 mph 1026.1mb 58f 55f
12:54 15 17 mph 1026.2mb 58f 55f
12:48 14 17 mph 1026.1mb 58f 55f
12:36 16 20 mph 1026.3mb 57f 55f
12:30 16 18 mph 1026.1mb 57f 55f
12:24 14 16 mph 1026.1mb 57f 55f
12:18 14 17 mph 1026mb 57f 55f
12:12 14 18 mph 1026.1mb 57f 55f
12:06 14 17 mph 1026.1mb 57f 55f
12:00 14 20 mph 1026.3mb 57f 55f
Di 06/20 11:54 15 18 mph 1026.2mb 57f 55f
11:48 15 20 mph 1026.3mb 57f 55f
11:36 14 16 mph 1026.1mb 57f 55f
11:30 14 17 mph 1026mb 57f 55f
11:24 14 15 mph 1026.1mb 57f 55f
11:18 10 14 mph 1026mb 57f 55f
11:12 8 11 mph 1026mb 57f 54f
11:06 6 16 mph 1026mb 57f 55f
11:00 11 18 mph 1026.1mb 57f 55f
10:54 13 16 mph 1026.1mb 57f 55f
10:48 15 16 mph 1026mb 57f 55f
10:36 14 20 mph 1026.2mb 57f 55f
10:30 15 18 mph 1026.2mb 57f 55f
10:24 15 18 mph 1026.2mb 57f 55f
10:18 16 18 mph 1026.3mb 57f 55f
10:12 15 20 mph 1026.3mb 57f 55f
10:06 16 20 mph 1026.2mb 57f 55f
10:00 17 20 mph 1026.2mb 57f 55f
9:54 17 21 mph 1026.1mb 57f 55f
9:48 15 18 mph 1026mb 57f 55f
9:36 14 20 mph 1025.9mb 57f 55f
9:30 16 20 mph 1025.8mb 57f 55f
9:24 14 17 mph 1025.7mb 56f 55f
9:18 15 18 mph 1025.8mb 56f 55f
9:12 14 20 mph 1025.8mb 56f 55f
9:06 15 18 mph 1025.8mb 56f 55f
9:00 15 18 mph 1025.8mb 56f 55f
8:54 17 20 mph 1025.8mb 56f 55f
8:48 17 18 mph 1025.7mb 56f 55f
8:36 17 21 mph 1025.7mb 57f 55f
8:30 16 22 mph 1025.8mb 57f 55f
8:24 17 21 mph 1025.8mb 57f 55f
8:18 17 21 mph 1025.7mb 57f 55f
8:12 17 20 mph 1025.7mb 57f 55f
8:06 16 20 mph 1025.7mb 57f 55f
8:00 17 21 mph 1025.6mb 57f 55f
7:54 18 21 mph 1025.6mb 57f 55f
7:48 17 21 mph 1025.5mb 57f 55f
7:36 16 21 mph 1025.3mb 57f 55f
7:30 17 22 mph 1025.3mb 57f 55f
7:24 20 23 mph 1025.3mb 57f 55f
7:18 18 22 mph 1025.3mb 57f 55f
7:12 18 23 mph 1025.5mb 57f 56f
7:06 17 23 mph 1025.3mb 57f 55f
7:00 18 21 mph 1025.4mb 57f 56f
6:54 16 21 mph 1025.3mb 57f 56f
6:48 17 21 mph 1025.3mb 57f 56f
6:36 16 21 mph 1025.1mb 57f 56f
6:30 15 22 mph 1025.1mb 57f 56f
6:24 17 20 mph 1025.1mb 58f 56f
6:18 17 22 mph 1025.1mb 58f 56f
6:12 18 23 mph 1025mb 57f 56f
6:06 18 21 mph 1025.1mb 57f 56f
6:00 20 22 mph 1025.2mb 57f 56f
5:54 16 21 mph 1025.1mb 57f 56f
5:48 17 20 mph 1025.2mb 57f 56f
5:36 18 21 mph 1025.2mb 56f 56f
5:30 17 21 mph 1025.1mb 56f 56f
5:24 15 20 mph 1025.2mb 56f 56f
5:18 16 20 mph 1025.2mb 56f 56f
5:12 17 21 mph 1025.3mb 56f 56f
5:06 16 21 mph 1025.3mb 56f 56f
5:00 18 21 mph 1025.4mb 56f 56f
4:54 16 20 mph 1025.4mb 56f 56f
4:48 17 21 mph 1025.4mb 56f 56f
4:36 17 21 mph 1025.4mb 56f 56f
4:30 15 18 mph 1025.4mb 56f 56f
4:24 15 20 mph 1025.3mb 56f 56f
4:18 15 20 mph 1025.3mb 56f 56f
4:12 15 18 mph 1025.3mb 56f 56f
4:06 15 17 mph 1025.1mb 56f 56f
4:00 16 20 mph 1025.1mb 56f 56f
3:54 15 18 mph 1025.1mb 56f 56f